createdAt,value
2023-04-16T00:03:11.709Z,216114.00
2023-04-16T00:09:14.181Z,216092.00
2023-04-16T00:15:16.815Z,216056.00
2023-04-16T00:21:19.274Z,216015.00
2023-04-16T00:27:21.897Z,215959.00
2023-04-16T00:33:24.476Z,215909.00
2023-04-16T00:39:26.990Z,215866.00
2023-04-16T00:45:29.568Z,215819.00
2023-04-16T00:51:32.302Z,215764.00
2023-04-16T00:57:34.561Z,215700.00
2023-04-16T01:03:48.035Z,215628.00
2023-04-16T01:09:53.055Z,215582.00
2023-04-16T01:15:55.614Z,215518.00
2023-04-16T01:21:59.106Z,215447.00
2023-04-16T01:28:01.605Z,215349.00
2023-04-16T01:34:04.428Z,215217.00
2023-04-16T01:40:08.022Z,215176.00
2023-04-16T01:46:21.373Z,215120.00
2023-04-16T01:52:23.926Z,215066.00
2023-04-16T01:58:28.334Z,214994.00
2023-04-16T02:04:31.152Z,214919.00
2023-04-16T02:10:33.741Z,214905.00
2023-04-16T02:16:36.689Z,214877.00
2023-04-16T02:22:56.855Z,214841.00
2023-04-16T02:29:00.166Z,214841.00
2023-04-16T02:35:11.259Z,214814.00
2023-04-16T02:41:14.400Z,214779.00
2023-04-16T02:47:16.745Z,214779.00
2023-04-16T02:53:19.388Z,214737.00
2023-04-16T02:59:21.834Z,214653.00
2023-04-16T03:05:24.316Z,214612.00
2023-04-16T03:11:26.697Z,214584.00
2023-04-16T03:17:29.544Z,214584.00
2023-04-16T03:23:32.198Z,214551.00
2023-04-16T03:29:37.481Z,214559.00
2023-04-16T03:35:41.349Z,214578.00
2023-04-16T03:41:43.612Z,214584.00
2023-04-16T03:47:48.959Z,214545.00
2023-04-16T03:53:51.446Z,214612.00
2023-04-16T03:59:54.815Z,214681.00
2023-04-16T04:05:58.439Z,214779.00
2023-04-16T04:12:04.641Z,214808.00
2023-04-16T04:18:09.181Z,214833.00
2023-04-16T04:24:12.254Z,214903.00
2023-04-16T04:30:15.048Z,214940.00
2023-04-16T04:36:17.883Z,215030.00
2023-04-16T04:42:23.786Z,215112.00
2023-04-16T04:48:27.956Z,215210.00
2023-04-16T04:54:32.446Z,215261.00
2023-04-16T05:00:36.550Z,215253.00
2023-04-16T05:06:38.756Z,215329.00
2023-04-16T05:12:41.164Z,215391.00
2023-04-16T05:18:43.493Z,215532.00
2023-04-16T05:24:46.214Z,215623.00
2023-04-16T05:30:48.577Z,215797.00
2023-04-16T05:36:50.912Z,215874.00
2023-04-16T05:42:53.347Z,216037.00
2023-04-16T05:48:55.900Z,216238.00
2023-04-16T05:55:02.081Z,216585.00
2023-04-16T06:01:04.775Z,217129.00
2023-04-16T06:07:07.574Z,217716.00
2023-04-16T06:13:10.091Z,218051.00
2023-04-16T06:19:12.600Z,218009.00
2023-04-16T06:25:16.869Z,218102.00
2023-04-16T06:31:20.369Z,219075.00
2023-04-16T06:37:22.712Z,218373.00
2023-04-16T06:43:25.114Z,218250.00
2023-04-16T06:49:27.501Z,218345.00
2023-04-16T06:55:29.712Z,218387.00
2023-04-16T07:01:32.012Z,219054.00
2023-04-16T07:07:34.224Z,218860.00
2023-04-16T07:13:36.515Z,218953.00
2023-04-16T07:19:38.914Z,218846.00
2023-04-16T07:25:42.505Z,219452.00
2023-04-16T07:31:45.772Z,219899.00
2023-04-16T07:37:48.006Z,220019.00
2023-04-16T07:43:50.208Z,222074.00
2023-04-16T07:49:52.943Z,223628.00
2023-04-16T07:55:55.860Z,222440.00
2023-04-16T08:01:58.220Z,221544.00
2023-04-16T08:08:00.711Z,221275.00
2023-04-16T08:14:03.154Z,220368.00
2023-04-16T08:20:07.220Z,220900.00
2023-04-16T08:26:09.924Z,220623.00
2023-04-16T08:32:12.349Z,221025.00
2023-04-16T08:38:14.778Z,221267.00
2023-04-16T08:44:37.135Z,220952.00
2023-04-16T08:50:41.266Z,220675.00
2023-04-16T08:56:43.596Z,222324.00
2023-04-16T09:02:46.123Z,223539.00
2023-04-16T09:08:49.773Z,224060.00
2023-04-16T09:14:52.396Z,224548.00
2023-04-16T09:20:56.754Z,224976.00
2023-04-16T09:27:00.379Z,224224.00
2023-04-16T09:33:23.295Z,222875.00
2023-04-16T09:39:25.964Z,220924.00
2023-04-16T09:45:32.443Z,220487.00
2023-04-16T09:51:38.983Z,221177.00
2023-04-16T09:57:41.653Z,221654.00
2023-04-16T10:03:49.853Z,220218.00
2023-04-16T10:09:53.569Z,219452.00
2023-04-16T10:15:57.696Z,220280.00
2023-04-16T10:22:00.286Z,220218.00
2023-04-16T10:28:03.606Z,220944.00
2023-04-16T10:34:07.507Z,221169.00
2023-04-16T10:40:26.423Z,220833.00
2023-04-16T10:46:43.360Z,220182.00
2023-04-16T10:52:46.338Z,219652.00
2023-04-16T10:58:48.750Z,219105.00
2023-04-16T11:04:51.576Z,219024.00
2023-04-16T11:10:54.846Z,218759.00
2023-04-16T11:16:57.377Z,218587.00
2023-04-16T11:22:59.568Z,218715.00
2023-04-16T11:29:02.242Z,219010.00
2023-04-16T11:35:06.274Z,218961.00
2023-04-16T11:41:09.558Z,218788.00
2023-04-16T11:47:14.323Z,218824.00
2023-04-16T11:53:16.725Z,218824.00
2023-04-16T11:59:23.874Z,218531.00
2023-04-16T12:05:35.175Z,218208.00
2023-04-16T12:11:41.525Z,217875.00
2023-04-16T12:17:44.013Z,217554.00
2023-04-16T12:23:46.665Z,217277.00
2023-04-16T12:30:08.313Z,216874.00
2023-04-16T12:36:20.715Z,216675.00
2023-04-16T12:42:24.403Z,216620.00
2023-04-16T12:48:27.312Z,216436.00
2023-04-16T12:54:31.562Z,216359.00
2023-04-16T13:00:34.076Z,216191.00
2023-04-16T13:06:38.248Z,216043.00
2023-04-16T13:12:40.972Z,215888.00
2023-04-16T13:18:43.450Z,215789.00
2023-04-16T13:24:46.647Z,215799.00
2023-04-16T13:30:49.493Z,215909.00
2023-04-16T13:36:51.953Z,215973.00
2023-04-16T13:42:54.252Z,216210.00
2023-04-16T13:48:56.810Z,216392.00
2023-04-16T13:55:00.225Z,216420.00
2023-04-16T14:01:02.822Z,216501.00
2023-04-16T14:07:05.185Z,216626.00
2023-04-16T14:13:07.579Z,216774.00
2023-04-16T14:19:10.226Z,216585.00
2023-04-16T14:25:12.992Z,216549.00
2023-04-16T14:31:17.585Z,216725.00
2023-04-16T14:37:20.008Z,216816.00
2023-04-16T14:43:22.312Z,216956.00
2023-04-16T14:49:24.659Z,216840.00
2023-04-16T14:55:27.026Z,216683.00
2023-04-16T15:01:29.390Z,216585.00
2023-04-16T15:07:32.223Z,216549.00
2023-04-16T15:13:34.685Z,216529.00
2023-04-16T15:19:37.263Z,216472.00
2023-04-16T15:25:39.356Z,216472.00
2023-04-16T15:31:42.164Z,216501.00
2023-04-16T15:37:44.388Z,216515.00
2023-04-16T15:43:56.352Z,216414.00
2023-04-16T15:49:58.645Z,216326.00
2023-04-16T15:56:01.475Z,216302.00
2023-04-16T16:02:04.207Z,216240.00
2023-04-16T16:08:06.752Z,216224.00
2023-04-16T16:14:09.504Z,216224.00
2023-04-16T16:20:13.580Z,216210.00
2023-04-16T16:26:15.967Z,216183.00
2023-04-16T16:32:19.568Z,216155.00
2023-04-16T16:38:21.944Z,216169.00
2023-04-16T16:44:24.593Z,216163.00
2023-04-16T16:50:27.415Z,216114.00
2023-04-16T16:56:30.012Z,216086.00
2023-04-16T17:02:32.581Z,216086.00
2023-04-16T17:08:35.252Z,216169.00
2023-04-16T17:14:37.652Z,216191.00
2023-04-16T17:20:40.188Z,216240.00
2023-04-16T17:26:42.593Z,216274.00
2023-04-16T17:32:45.196Z,216326.00
2023-04-16T17:38:47.452Z,216332.00
2023-04-16T17:44:49.686Z,216345.00
2023-04-16T17:50:51.891Z,216400.00
2023-04-16T17:56:54.381Z,216386.00
2023-04-16T18:02:58.186Z,216392.00
2023-04-16T18:09:00.754Z,216386.00
2023-04-16T18:15:06.074Z,216386.00
2023-04-16T18:21:08.448Z,216359.00
2023-04-16T18:27:10.652Z,216353.00
2023-04-16T18:33:43.560Z,216304.00
2023-04-16T18:39:36.901Z,216224.00
2023-04-16T18:51:45.291Z,216078.00
2023-04-16T18:57:47.747Z,216001.00
2023-04-16T19:03:50.279Z,215929.00
2023-04-16T19:09:52.674Z,215880.00
2023-04-16T19:16:00.186Z,215902.00
2023-04-16T19:22:02.829Z,215915.00
2023-04-16T19:28:05.318Z,215929.00
2023-04-16T19:34:08.042Z,215943.00
2023-04-16T19:40:11.358Z,215959.00
2023-04-16T19:46:15.883Z,215945.00
2023-04-16T19:52:18.529Z,215965.00
2023-04-16T19:58:20.806Z,215973.00
2023-04-16T20:04:23.286Z,215973.00
2023-04-16T20:10:26.918Z,215987.00
2023-04-16T20:16:30.508Z,215979.00
2023-04-16T20:22:33.351Z,215973.00
2023-04-16T20:28:35.619Z,215965.00
2023-04-16T20:34:38.351Z,215959.00
2023-04-16T20:40:40.825Z,215945.00
2023-04-16T20:46:44.603Z,215909.00
2023-04-16T20:52:46.961Z,215909.00
2023-04-16T20:58:49.238Z,215894.00
2023-04-16T21:04:51.810Z,215866.00
2023-04-16T21:10:54.366Z,215866.00
2023-04-16T21:16:56.789Z,215799.00
2023-04-16T21:22:59.479Z,215783.00
2023-04-16T21:29:01.627Z,215799.00
2023-04-16T21:35:04.171Z,215819.00
2023-04-16T21:41:06.685Z,215769.00
2023-04-16T21:47:09.166Z,215764.00
2023-04-16T21:53:11.381Z,215769.00
2023-04-16T21:59:13.662Z,215756.00
2023-04-16T22:05:16.088Z,215734.00
2023-04-16T22:11:18.319Z,215700.00
2023-04-16T22:17:21.511Z,215720.00
2023-04-16T22:23:24.337Z,215700.00
2023-04-16T22:29:26.754Z,215656.00
2023-04-16T22:35:36.663Z,215656.00
2023-04-16T22:41:38.890Z,215656.00
2023-04-16T22:47:42.004Z,215642.00
2023-04-16T22:53:44.434Z,215628.00
2023-04-16T22:59:47.421Z,215628.00
2023-04-16T23:05:49.951Z,215615.00
2023-04-16T23:11:52.316Z,215615.00
2023-04-16T23:17:54.630Z,215615.00
2023-04-16T23:23:57.475Z,215582.00
2023-04-16T23:29:59.711Z,215560.00
2023-04-16T23:36:02.393Z,215518.00
2023-04-16T23:42:04.645Z,215510.00
2023-04-16T23:48:07.246Z,215496.00
2023-04-16T23:54:09.382Z,215502.00
